createdAt,value
2017-10-03T00:00:24.043Z,0
2017-10-03T00:01:32.874Z,0
2017-10-03T00:02:41.703Z,0
2017-10-03T00:03:50.535Z,0
2017-10-03T00:04:59.366Z,0
2017-10-03T00:06:08.531Z,0
2017-10-03T00:07:17.360Z,0
2017-10-03T00:08:26.192Z,0
2017-10-03T00:09:35.024Z,0
2017-10-03T00:10:43.955Z,0
2017-10-03T00:11:52.790Z,0
2017-10-03T00:13:01.622Z,0
2017-10-03T00:14:10.454Z,0
2017-10-03T00:15:19.287Z,0
2017-10-03T00:16:28.268Z,0
2017-10-03T00:17:37.101Z,0
2017-10-03T00:18:46.266Z,0
2017-10-03T00:19:55.098Z,0
2017-10-03T00:21:03.938Z,0
2017-10-03T00:22:13.404Z,0
2017-10-03T00:23:22.236Z,0
2017-10-03T00:24:31.067Z,0
2017-10-03T00:25:39.900Z,0
2017-10-03T00:26:48.732Z,0
2017-10-03T00:27:57.969Z,0
2017-10-03T00:29:06.801Z,0
2017-10-03T00:30:15.628Z,0
2017-10-03T00:31:24.459Z,0
2017-10-03T00:32:33.290Z,0
2017-10-03T00:33:42.273Z,0
2017-10-03T00:34:51.105Z,0
2017-10-03T00:35:59.937Z,0
2017-10-03T00:37:08.774Z,0
2017-10-03T00:38:17.600Z,0
2017-10-03T00:39:26.430Z,0
2017-10-03T00:40:35.262Z,0
2017-10-03T00:41:44.091Z,0
2017-10-03T00:42:52.923Z,0
2017-10-03T00:44:01.755Z,0
2017-10-03T00:45:10.967Z,0
2017-10-03T00:46:19.800Z,0
2017-10-03T00:47:28.633Z,0
2017-10-03T00:48:37.463Z,0
2017-10-03T00:49:46.294Z,0
2017-10-03T00:50:55.178Z,0
2017-10-03T00:52:04.009Z,0
2017-10-03T00:53:12.841Z,0
2017-10-03T00:54:21.674Z,0
2017-10-03T00:55:30.504Z,0
2017-10-03T00:56:39.637Z,0
2017-10-03T00:57:48.471Z,0
2017-10-03T00:58:57.304Z,0
2017-10-03T01:00:06.135Z,0
2017-10-03T01:01:14.968Z,0
2017-10-03T01:02:23.855Z,0
2017-10-03T01:03:32.688Z,0
2017-10-03T01:04:41.519Z,0
2017-10-03T01:05:50.351Z,0
2017-10-03T01:06:59.179Z,0
2017-10-03T01:08:08.011Z,0
2017-10-03T01:09:16.844Z,0
2017-10-03T01:10:25.675Z,0
2017-10-03T01:11:34.507Z,0
2017-10-03T01:12:43.339Z,0
2017-10-03T01:13:52.271Z,0
2017-10-03T01:15:01.101Z,0
2017-10-03T01:16:09.933Z,0
2017-10-03T01:17:18.764Z,0
2017-10-03T01:18:27.592Z,0
2017-10-03T01:19:36.625Z,0
2017-10-03T01:20:45.457Z,0
2017-10-03T01:21:54.288Z,0
2017-10-03T01:23:03.118Z,0
2017-10-03T01:24:12.280Z,0
2017-10-03T01:25:21.260Z,0
2017-10-03T01:26:30.091Z,0
2017-10-03T01:27:38.923Z,0
2017-10-03T01:28:47.754Z,0
2017-10-03T01:29:56.586Z,0
2017-10-03T01:31:05.417Z,0
2017-10-03T01:32:14.247Z,0
2017-10-03T01:33:23.077Z,0
2017-10-03T01:34:31.910Z,0
2017-10-03T01:35:40.742Z,0
2017-10-03T01:36:49.774Z,0
2017-10-03T01:37:58.605Z,0
2017-10-03T01:39:07.436Z,0
2017-10-03T01:40:16.268Z,0
2017-10-03T01:41:25.098Z,0
2017-10-03T01:42:34.560Z,0
2017-10-03T01:43:43.390Z,0
2017-10-03T01:44:52.219Z,0
2017-10-03T01:46:01.050Z,0
2017-10-03T01:47:09.877Z,0
2017-10-03T01:48:18.758Z,0
2017-10-03T01:49:27.591Z,0
2017-10-03T01:50:36.423Z,0
2017-10-03T01:51:45.259Z,0
2017-10-03T01:52:54.098Z,0
2017-10-03T01:54:03.079Z,0
2017-10-03T01:55:11.911Z,0
2017-10-03T01:56:20.744Z,0
2017-10-03T01:57:29.580Z,0
2017-10-03T01:58:38.406Z,0
2017-10-03T01:59:47.389Z,0
2017-10-03T02:00:56.219Z,0
2017-10-03T02:02:05.052Z,0
2017-10-03T02:03:13.884Z,0
2017-10-03T02:04:22.715Z,0
2017-10-03T02:05:31.547Z,0
2017-10-03T02:06:40.376Z,0
2017-10-03T02:07:49.207Z,0
2017-10-03T02:08:58.035Z,0
2017-10-03T02:10:06.865Z,0
2017-10-03T02:11:15.846Z,0
2017-10-03T02:12:24.674Z,0
2017-10-03T02:13:33.504Z,0
2017-10-03T02:14:42.336Z,0
2017-10-03T02:15:51.167Z,0
2017-10-03T02:17:00.150Z,0
2017-10-03T02:18:08.981Z,0
2017-10-03T02:19:17.811Z,0
2017-10-03T02:20:26.641Z,0
2017-10-03T02:21:35.471Z,0
2017-10-03T02:22:44.403Z,0
2017-10-03T02:23:53.236Z,0
2017-10-03T02:25:02.397Z,0
2017-10-03T02:26:11.229Z,0
2017-10-03T02:27:20.061Z,0
2017-10-03T02:28:29.373Z,0
2017-10-03T02:29:38.204Z,0
2017-10-03T02:30:47.062Z,0
2017-10-03T02:31:55.876Z,0
2017-10-03T02:33:04.708Z,0
2017-10-03T02:34:13.792Z,0
2017-10-03T02:35:22.621Z,0
2017-10-03T02:36:31.451Z,0
2017-10-03T02:37:40.281Z,0
2017-10-03T02:38:49.113Z,0
2017-10-03T02:39:58.047Z,0
2017-10-03T02:41:07.212Z,0
2017-10-03T02:42:16.044Z,0
2017-10-03T02:43:24.874Z,0
2017-10-03T02:44:33.706Z,0
2017-10-03T02:45:42.689Z,0
2017-10-03T02:46:51.520Z,0
2017-10-03T02:48:00.355Z,0
2017-10-03T02:49:09.188Z,0
2017-10-03T02:50:18.350Z,0
2017-10-03T02:51:27.232Z,0
2017-10-03T02:52:36.064Z,0
2017-10-03T02:53:44.897Z,0
2017-10-03T02:54:53.731Z,0
2017-10-03T02:56:02.561Z,0
2017-10-03T02:57:11.443Z,0
2017-10-03T02:58:20.271Z,0
2017-10-03T02:59:29.103Z,0
2017-10-03T03:00:38.263Z,0
2017-10-03T03:01:47.094Z,0
2017-10-03T03:02:55.976Z,0
2017-10-03T03:04:04.809Z,0
2017-10-03T03:05:13.640Z,0
2017-10-03T03:06:22.471Z,0
2017-10-03T03:07:31.304Z,0
2017-10-03T03:08:40.291Z,0
2017-10-03T03:09:49.121Z,0
2017-10-03T03:10:57.951Z,0
2017-10-03T03:12:06.782Z,0
2017-10-03T03:13:15.612Z,0
2017-10-03T03:14:24.773Z,0
2017-10-03T03:15:33.604Z,0
2017-10-03T03:16:42.434Z,0
2017-10-03T03:17:51.264Z,0
2017-10-03T03:19:00.104Z,0
2017-10-03T03:20:08.932Z,0
2017-10-03T03:21:18.094Z,0
2017-10-03T03:22:26.926Z,0
2017-10-03T03:23:35.755Z,0
2017-10-03T03:24:44.587Z,0
2017-10-03T03:25:53.717Z,0
2017-10-03T03:27:02.548Z,0
2017-10-03T03:28:11.381Z,0
2017-10-03T03:29:20.213Z,0
2017-10-03T03:30:29.045Z,0
2017-10-03T03:31:37.927Z,0
2017-10-03T03:32:46.760Z,0
2017-10-03T03:33:55.591Z,0
2017-10-03T03:35:04.422Z,0
2017-10-03T03:36:13.252Z,0
2017-10-03T03:37:22.134Z,0
2017-10-03T03:38:30.965Z,0
2017-10-03T03:39:39.796Z,0
2017-10-03T03:40:48.629Z,0
2017-10-03T03:41:57.463Z,0
2017-10-03T03:43:06.297Z,0
2017-10-03T03:44:15.137Z,0
2017-10-03T03:45:23.959Z,0
2017-10-03T03:46:32.792Z,0
2017-10-03T03:47:41.623Z,0
2017-10-03T03:48:50.655Z,0
2017-10-03T03:49:59.485Z,0
2017-10-03T03:51:08.317Z,0
2017-10-03T03:52:17.149Z,0
2017-10-03T03:53:25.980Z,0
2017-10-03T03:54:34.858Z,0
2017-10-03T03:55:43.690Z,0
2017-10-03T03:56:52.521Z,0
2017-10-03T03:58:01.352Z,0
2017-10-03T03:59:10.183Z,0
2017-10-03T04:00:19.114Z,0
2017-10-03T04:01:27.944Z,0
2017-10-03T04:02:36.774Z,0
2017-10-03T04:03:45.610Z,0
2017-10-03T04:04:54.440Z,0
2017-10-03T04:06:03.321Z,0
2017-10-03T04:07:12.152Z,0
2017-10-03T04:08:20.986Z,0
2017-10-03T04:09:29.816Z,0
2017-10-03T04:10:38.647Z,0
2017-10-03T04:11:47.641Z,0
2017-10-03T04:12:56.462Z,0
2017-10-03T04:14:05.295Z,0
2017-10-03T04:15:14.126Z,0
2017-10-03T04:16:22.958Z,0
2017-10-03T04:17:31.791Z,0
2017-10-03T04:18:40.622Z,0
2017-10-03T04:19:49.450Z,0
2017-10-03T04:20:58.282Z,0
2017-10-03T04:22:07.112Z,0
2017-10-03T04:23:15.993Z,0
2017-10-03T04:24:24.827Z,0
2017-10-03T04:25:33.659Z,0
2017-10-03T04:26:42.489Z,0
2017-10-03T04:27:51.316Z,0
2017-10-03T04:29:00.146Z,0
2017-10-03T04:30:09.309Z,0
2017-10-03T04:31:18.139Z,0
2017-10-03T04:32:26.971Z,0
2017-10-03T04:33:35.801Z,0
2017-10-03T04:34:44.931Z,0
2017-10-03T04:35:53.760Z,0
2017-10-03T04:37:02.590Z,0
2017-10-03T04:38:11.422Z,0
2017-10-03T04:39:20.256Z,0
2017-10-03T04:40:29.186Z,0
2017-10-03T04:41:38.018Z,0
2017-10-03T04:42:46.851Z,0
2017-10-03T04:43:55.681Z,0
2017-10-03T04:45:04.512Z,0
2017-10-03T04:46:13.443Z,0
2017-10-03T04:47:22.274Z,0
2017-10-03T04:48:31.105Z,0
2017-10-03T04:49:39.934Z,0
2017-10-03T04:50:48.765Z,0
2017-10-03T04:51:57.645Z,0
2017-10-03T04:53:06.475Z,0
2017-10-03T04:54:15.304Z,0
2017-10-03T04:55:24.183Z,0
2017-10-03T04:56:33.014Z,0
2017-10-03T04:57:41.947Z,0
2017-10-03T04:58:50.775Z,0
2017-10-03T04:59:59.606Z,0
2017-10-03T05:01:08.437Z,0
2017-10-03T05:02:17.269Z,0
2017-10-03T05:03:26.151Z,0
2017-10-03T05:04:34.984Z,0
2017-10-03T05:05:43.817Z,0
2017-10-03T05:06:52.651Z,0
2017-10-03T05:08:01.484Z,0
2017-10-03T05:09:10.315Z,0
2017-10-03T05:10:19.146Z,0
2017-10-03T05:11:27.980Z,0
2017-10-03T05:12:36.809Z,0
2017-10-03T05:13:45.638Z,0
2017-10-03T05:14:54.468Z,0
2017-10-03T05:16:03.299Z,0
2017-10-03T05:17:12.128Z,0
2017-10-03T05:18:20.959Z,0
2017-10-03T05:19:29.791Z,0
2017-10-03T05:20:38.673Z,0
2017-10-03T05:21:47.506Z,0
2017-10-03T05:22:56.359Z,0
2017-10-03T05:24:05.169Z,0
2017-10-03T05:25:14.000Z,5
2017-10-03T05:26:22.983Z,5
2017-10-03T05:27:32.149Z,5
2017-10-03T05:28:40.982Z,5
2017-10-03T05:29:49.814Z,5
2017-10-03T05:30:58.646Z,5
2017-10-03T05:32:07.628Z,10
2017-10-03T05:33:16.792Z,10
2017-10-03T05:34:25.624Z,10
2017-10-03T05:35:34.783Z,10
2017-10-03T05:36:43.616Z,15
2017-10-03T05:37:52.549Z,15
2017-10-03T05:39:01.378Z,15
2017-10-03T05:40:10.211Z,15
2017-10-03T05:41:19.041Z,20
2017-10-03T05:42:27.874Z,20
2017-10-03T05:43:37.089Z,20
2017-10-03T05:44:45.924Z,25
2017-10-03T05:45:54.759Z,25
2017-10-03T05:47:03.917Z,25
2017-10-03T05:48:12.748Z,30
2017-10-03T05:49:21.629Z,30
2017-10-03T05:50:30.461Z,30
2017-10-03T05:51:39.296Z,30
2017-10-03T05:52:48.127Z,35
2017-10-03T05:53:56.960Z,35
2017-10-03T05:55:06.223Z,35
2017-10-03T05:56:15.058Z,40
2017-10-03T05:57:23.888Z,40
2017-10-03T05:58:32.722Z,40
2017-10-03T05:59:41.886Z,45
2017-10-03T06:00:50.767Z,45
2017-10-03T06:01:59.599Z,50
2017-10-03T06:03:08.430Z,50
2017-10-03T06:04:17.262Z,50
2017-10-03T06:05:26.094Z,55
2017-10-03T06:06:34.928Z,55
2017-10-03T06:07:43.759Z,60
2017-10-03T06:08:52.590Z,60
2017-10-03T06:10:01.418Z,60
2017-10-03T06:11:10.248Z,65
2017-10-03T06:12:19.128Z,65
2017-10-03T06:13:28.293Z,65
2017-10-03T06:14:37.457Z,70
2017-10-03T06:15:46.291Z,70
2017-10-03T06:16:55.121Z,70
2017-10-03T06:18:04.054Z,75
2017-10-03T06:19:12.883Z,75
2017-10-03T06:20:21.713Z,75
2017-10-03T06:21:30.545Z,75
2017-10-03T06:22:39.377Z,75
2017-10-03T06:23:48.261Z,75
2017-10-03T06:24:57.090Z,75
2017-10-03T06:26:05.921Z,75
2017-10-03T06:27:14.750Z,80
2017-10-03T06:28:23.584Z,80
2017-10-03T06:29:32.792Z,80
2017-10-03T06:30:41.622Z,85
2017-10-03T06:31:50.455Z,90
2017-10-03T06:32:59.614Z,90
2017-10-03T06:34:08.444Z,100
2017-10-03T06:35:17.278Z,105
2017-10-03T06:36:26.209Z,115
2017-10-03T06:37:35.041Z,115
2017-10-03T06:38:43.877Z,120
2017-10-03T06:39:52.708Z,125
2017-10-03T06:41:02.031Z,130
2017-10-03T06:42:10.857Z,135
2017-10-03T06:43:19.690Z,125
2017-10-03T06:44:28.522Z,125
2017-10-03T06:45:37.354Z,125
2017-10-03T06:46:46.336Z,120
2017-10-03T06:47:55.168Z,115
2017-10-03T06:49:03.997Z,125
2017-10-03T06:50:12.830Z,120
2017-10-03T06:51:21.663Z,110
2017-10-03T06:52:30.595Z,100
2017-10-03T06:53:39.430Z,100
2017-10-03T06:54:48.263Z,95
2017-10-03T06:55:57.096Z,95
2017-10-03T06:57:05.928Z,100
2017-10-03T06:58:14.868Z,105
2017-10-03T06:59:24.030Z,110
2017-10-03T07:00:32.866Z,120
2017-10-03T07:01:41.699Z,130
2017-10-03T07:02:50.531Z,150
2017-10-03T07:03:59.665Z,150
2017-10-03T07:05:08.497Z,155
2017-10-03T07:06:17.330Z,165
2017-10-03T07:07:26.164Z,185
2017-10-03T07:08:34.997Z,180
2017-10-03T07:09:44.130Z,170
2017-10-03T07:10:52.963Z,150
2017-10-03T07:12:01.797Z,140
2017-10-03T07:13:10.630Z,140
2017-10-03T07:14:19.460Z,130
2017-10-03T07:15:28.595Z,120
2017-10-03T07:16:37.757Z,115
2017-10-03T07:17:46.921Z,110
2017-10-03T07:18:55.755Z,110
2017-10-03T07:20:04.588Z,110
2017-10-03T07:21:13.899Z,110
2017-10-03T07:22:22.732Z,115
2017-10-03T07:23:31.564Z,115
2017-10-03T07:24:40.394Z,120
2017-10-03T07:25:49.227Z,125
2017-10-03T07:26:58.209Z,125
2017-10-03T07:28:07.042Z,125
2017-10-03T07:29:16.205Z,125
2017-10-03T07:30:25.038Z,130
2017-10-03T07:31:33.873Z,130
2017-10-03T07:32:42.856Z,135
2017-10-03T07:33:51.689Z,130
2017-10-03T07:35:00.519Z,130
2017-10-03T07:36:09.683Z,135
2017-10-03T07:37:18.515Z,135
2017-10-03T07:38:27.499Z,135
2017-10-03T07:39:36.332Z,135
2017-10-03T07:40:45.165Z,135
2017-10-03T07:41:54.001Z,135
2017-10-03T07:43:02.834Z,135
2017-10-03T07:44:11.666Z,140
2017-10-03T07:45:20.499Z,140
2017-10-03T07:46:29.334Z,145
2017-10-03T07:47:38.494Z,155
2017-10-03T07:48:47.327Z,160
2017-10-03T07:49:56.230Z,150
2017-10-03T07:51:05.041Z,155
2017-10-03T07:52:13.875Z,185
2017-10-03T07:53:22.709Z,155
2017-10-03T07:54:31.541Z,145
2017-10-03T07:55:40.477Z,145
2017-10-03T07:56:49.310Z,145
2017-10-03T07:57:58.147Z,145
2017-10-03T07:59:07.306Z,150
2017-10-03T08:00:16.146Z,155
2017-10-03T08:01:25.278Z,145
2017-10-03T08:02:34.111Z,140
2017-10-03T08:03:42.943Z,145
2017-10-03T08:04:51.776Z,140
2017-10-03T08:06:00.609Z,140
2017-10-03T08:07:09.440Z,140
2017-10-03T08:08:18.274Z,140
2017-10-03T08:09:27.106Z,150
2017-10-03T08:10:35.939Z,150
2017-10-03T08:11:44.771Z,150
2017-10-03T08:12:53.654Z,150
2017-10-03T08:14:02.487Z,150
2017-10-03T08:15:11.319Z,155
2017-10-03T08:16:20.153Z,185
2017-10-03T08:17:28.985Z,170
2017-10-03T08:18:37.817Z,180
2017-10-03T08:19:46.648Z,215
2017-10-03T08:20:55.481Z,205
2017-10-03T08:22:04.313Z,240
2017-10-03T08:23:13.147Z,250
2017-10-03T08:24:22.029Z,275
2017-10-03T08:25:30.864Z,280
2017-10-03T08:26:39.697Z,295
2017-10-03T08:27:48.528Z,330
2017-10-03T08:28:57.362Z,410
2017-10-03T08:30:06.496Z,365
2017-10-03T08:31:15.331Z,270
2017-10-03T08:32:24.165Z,215
2017-10-03T08:33:32.999Z,190
2017-10-03T08:34:42.162Z,175
2017-10-03T08:35:50.994Z,185
2017-10-03T08:36:59.826Z,210
2017-10-03T08:38:08.662Z,280
2017-10-03T08:39:17.497Z,305
2017-10-03T08:40:26.329Z,305
2017-10-03T08:41:35.640Z,305
2017-10-03T08:42:44.474Z,295
2017-10-03T08:43:53.307Z,290
2017-10-03T08:45:02.140Z,250
2017-10-03T08:46:10.972Z,215
2017-10-03T08:47:19.854Z,200
2017-10-03T08:48:28.686Z,170
2017-10-03T08:49:37.520Z,160
2017-10-03T08:50:46.352Z,155
2017-10-03T08:51:55.186Z,160
2017-10-03T08:53:04.120Z,160
2017-10-03T08:54:12.952Z,150
2017-10-03T08:55:21.786Z,155
2017-10-03T08:56:30.623Z,180
2017-10-03T08:57:39.458Z,170
2017-10-03T08:58:48.342Z,165
2017-10-03T08:59:57.177Z,165
2017-10-03T09:01:06.012Z,165
2017-10-03T09:02:14.841Z,175
2017-10-03T09:03:23.675Z,175
2017-10-03T09:04:32.661Z,175
2017-10-03T09:05:41.494Z,175
2017-10-03T09:06:50.326Z,205
2017-10-03T09:07:59.160Z,180
2017-10-03T09:09:08.325Z,210
2017-10-03T09:10:17.159Z,220
2017-10-03T09:11:25.993Z,270
2017-10-03T09:12:34.831Z,360
2017-10-03T09:13:43.668Z,335
2017-10-03T09:14:52.499Z,375
2017-10-03T09:16:01.485Z,295
2017-10-03T09:17:10.324Z,305
2017-10-03T09:18:19.490Z,310
2017-10-03T09:19:28.331Z,390
2017-10-03T09:20:37.163Z,355
2017-10-03T09:21:46.197Z,340
2017-10-03T09:22:55.033Z,345
2017-10-03T09:24:03.867Z,290
2017-10-03T09:25:12.701Z,210
2017-10-03T09:26:21.536Z,245
2017-10-03T09:27:30.622Z,305
2017-10-03T09:28:39.454Z,200
2017-10-03T09:29:48.288Z,250
2017-10-03T09:30:57.123Z,255
2017-10-03T09:32:05.955Z,190
2017-10-03T09:33:14.940Z,210
2017-10-03T09:34:23.773Z,265
2017-10-03T09:35:32.941Z,215
2017-10-03T09:36:42.108Z,200
2017-10-03T09:37:50.940Z,200
2017-10-03T09:38:59.929Z,280
2017-10-03T09:40:08.762Z,245
2017-10-03T09:41:17.597Z,240
2017-10-03T09:42:26.429Z,285
2017-10-03T09:43:35.263Z,345
2017-10-03T09:44:44.174Z,245
2017-10-03T09:45:52.984Z,300
2017-10-03T09:47:01.821Z,220
2017-10-03T09:48:10.656Z,255
2017-10-03T09:49:19.491Z,275
2017-10-03T09:50:28.330Z,285
2017-10-03T09:51:37.513Z,305
2017-10-03T09:52:46.330Z,240
2017-10-03T09:53:55.166Z,215
2017-10-03T09:55:03.999Z,205
2017-10-03T09:56:12.882Z,250
2017-10-03T09:57:21.719Z,215
2017-10-03T09:58:30.552Z,235
2017-10-03T09:59:39.723Z,215
2017-10-03T10:00:48.559Z,235
2017-10-03T10:01:57.545Z,265
2017-10-03T10:03:06.714Z,265
2017-10-03T10:04:15.550Z,300
2017-10-03T10:05:24.381Z,395
2017-10-03T10:06:33.216Z,355
2017-10-03T10:07:42.206Z,375
2017-10-03T10:08:51.039Z,395
2017-10-03T10:09:59.873Z,430
2017-10-03T10:11:08.708Z,345
2017-10-03T10:12:17.541Z,360
2017-10-03T10:13:26.478Z,425
2017-10-03T10:14:35.311Z,300
2017-10-03T10:15:44.147Z,240
2017-10-03T10:16:53.316Z,285
2017-10-03T10:18:02.150Z,395
2017-10-03T10:19:11.133Z,360
2017-10-03T10:20:19.969Z,460
2017-10-03T10:21:28.804Z,420
2017-10-03T10:22:37.637Z,355
2017-10-03T10:23:46.474Z,315
2017-10-03T10:24:55.356Z,315
2017-10-03T10:26:04.196Z,385
2017-10-03T10:27:13.026Z,400
2017-10-03T10:28:21.865Z,340
2017-10-03T10:29:30.699Z,265
2017-10-03T10:30:39.787Z,265
2017-10-03T10:31:48.955Z,305
2017-10-03T10:32:57.791Z,395
2017-10-03T10:34:06.626Z,290
2017-10-03T10:35:15.461Z,350
2017-10-03T10:36:24.696Z,345
2017-10-03T10:37:33.530Z,310
2017-10-03T10:38:42.362Z,370
2017-10-03T10:39:51.197Z,395
2017-10-03T10:41:00.031Z,375
2017-10-03T10:42:08.865Z,275
2017-10-03T10:43:17.703Z,280
2017-10-03T10:44:26.539Z,240
2017-10-03T10:45:35.375Z,190
2017-10-03T10:46:44.211Z,180
2017-10-03T10:47:53.145Z,175
2017-10-03T10:49:01.978Z,180
2017-10-03T10:50:10.812Z,180
2017-10-03T10:51:19.644Z,195
2017-10-03T10:52:28.479Z,210
2017-10-03T10:53:37.360Z,240
2017-10-03T10:54:46.194Z,260
2017-10-03T10:55:55.030Z,285
2017-10-03T10:57:03.862Z,345
2017-10-03T10:58:12.697Z,450
2017-10-03T10:59:21.932Z,465
2017-10-03T11:00:30.768Z,505
2017-10-03T11:01:39.602Z,510
2017-10-03T11:02:48.437Z,500
2017-10-03T11:03:57.272Z,455
2017-10-03T11:05:06.209Z,410
2017-10-03T11:06:15.044Z,335
2017-10-03T11:07:23.878Z,400
2017-10-03T11:08:32.712Z,535
2017-10-03T11:09:41.547Z,545
2017-10-03T11:10:50.380Z,570
2017-10-03T11:11:59.217Z,530
2017-10-03T11:13:08.052Z,500
2017-10-03T11:14:16.887Z,440
2017-10-03T11:15:25.723Z,390
2017-10-03T11:16:34.861Z,290
2017-10-03T11:17:43.696Z,210
2017-10-03T11:18:52.530Z,225
2017-10-03T11:20:01.365Z,195
2017-10-03T11:21:10.198Z,200
2017-10-03T11:22:19.032Z,230
2017-10-03T11:23:27.865Z,245
2017-10-03T11:24:36.698Z,225
2017-10-03T11:25:45.531Z,230
2017-10-03T11:26:54.365Z,250
2017-10-03T11:28:03.449Z,285
2017-10-03T11:29:12.284Z,345
2017-10-03T11:30:21.118Z,340
2017-10-03T11:31:29.952Z,275
2017-10-03T11:32:38.787Z,235
2017-10-03T11:33:47.771Z,220
2017-10-03T11:34:56.604Z,230
2017-10-03T11:36:05.439Z,240
2017-10-03T11:37:14.272Z,245
2017-10-03T11:38:23.107Z,245
2017-10-03T11:39:32.042Z,245
2017-10-03T11:40:40.875Z,255
2017-10-03T11:41:49.709Z,265
2017-10-03T11:42:58.544Z,280
2017-10-03T11:44:07.376Z,305
2017-10-03T11:45:16.208Z,355
2017-10-03T11:46:25.042Z,515
2017-10-03T11:47:33.874Z,710
2017-10-03T11:48:42.710Z,645
2017-10-03T11:49:51.543Z,620
2017-10-03T11:51:00.425Z,650
2017-10-03T11:52:09.260Z,520
2017-10-03T11:53:18.093Z,495
2017-10-03T11:54:26.929Z,490
2017-10-03T11:55:35.761Z,425
2017-10-03T11:56:44.895Z,315
2017-10-03T11:57:53.729Z,270
2017-10-03T11:59:02.564Z,260
2017-10-03T12:00:11.401Z,270
2017-10-03T12:01:20.572Z,270
2017-10-03T12:02:29.408Z,280
2017-10-03T12:03:38.241Z,285
2017-10-03T12:04:47.075Z,325
2017-10-03T12:05:55.907Z,305
2017-10-03T12:07:04.740Z,295
2017-10-03T12:08:13.875Z,285
2017-10-03T12:09:22.708Z,285
2017-10-03T12:10:31.542Z,330
2017-10-03T12:11:40.374Z,405
2017-10-03T12:12:49.209Z,465
2017-10-03T12:13:58.095Z,535
2017-10-03T12:15:06.930Z,575
2017-10-03T12:16:15.772Z,660
2017-10-03T12:17:24.649Z,700
2017-10-03T12:18:33.483Z,815
2017-10-03T12:19:42.419Z,765
2017-10-03T12:20:51.253Z,720
2017-10-03T12:22:00.416Z,675
2017-10-03T12:23:09.251Z,660
2017-10-03T12:24:18.087Z,640
2017-10-03T12:25:27.071Z,625
2017-10-03T12:26:35.905Z,630
2017-10-03T12:27:44.743Z,630
2017-10-03T12:28:53.581Z,620
2017-10-03T12:30:02.418Z,625
2017-10-03T12:31:11.403Z,650
2017-10-03T12:32:20.238Z,655
2017-10-03T12:33:29.072Z,645
2017-10-03T12:34:37.903Z,635
2017-10-03T12:35:46.737Z,640
2017-10-03T12:36:55.821Z,650
2017-10-03T12:38:04.653Z,700
2017-10-03T12:39:13.486Z,750
2017-10-03T12:40:22.320Z,770
2017-10-03T12:41:31.155Z,725
2017-10-03T12:42:40.143Z,710
2017-10-03T12:43:48.979Z,685
2017-10-03T12:44:57.808Z,735
2017-10-03T12:46:06.641Z,900
2017-10-03T12:47:15.473Z,600
2017-10-03T12:48:24.308Z,470
2017-10-03T12:49:33.141Z,385
2017-10-03T12:50:41.978Z,400
2017-10-03T12:51:50.810Z,700
2017-10-03T12:52:59.645Z,520
2017-10-03T12:54:08.579Z,325
2017-10-03T12:55:17.413Z,375
2017-10-03T12:56:26.246Z,450
2017-10-03T12:57:35.080Z,420
2017-10-03T12:58:43.913Z,385
2017-10-03T12:59:53.050Z,440
2017-10-03T13:01:02.220Z,350
2017-10-03T13:02:11.055Z,435
2017-10-03T13:03:19.891Z,475
2017-10-03T13:04:28.726Z,400
2017-10-03T13:05:37.610Z,425
2017-10-03T13:06:46.460Z,485
2017-10-03T13:07:55.288Z,450
2017-10-03T13:09:04.454Z,430
2017-10-03T13:10:13.288Z,540
2017-10-03T13:11:22.221Z,535
2017-10-03T13:12:31.058Z,530
2017-10-03T13:13:39.895Z,550
2017-10-03T13:14:48.728Z,575
2017-10-03T13:15:57.563Z,555
2017-10-03T13:17:06.448Z,520
2017-10-03T13:18:15.282Z,530
2017-10-03T13:19:24.117Z,565
2017-10-03T13:20:32.951Z,580
2017-10-03T13:21:41.787Z,605
2017-10-03T13:22:50.873Z,565
2017-10-03T13:23:59.706Z,530
2017-10-03T13:25:08.542Z,505
2017-10-03T13:26:17.375Z,560
2017-10-03T13:27:26.212Z,505
2017-10-03T13:28:35.096Z,320
2017-10-03T13:29:43.926Z,365
2017-10-03T13:30:52.762Z,395
2017-10-03T13:32:01.598Z,600
2017-10-03T13:33:10.433Z,735
2017-10-03T13:34:19.318Z,890
2017-10-03T13:35:28.156Z,940
2017-10-03T13:36:36.995Z,985
2017-10-03T13:37:45.829Z,725
2017-10-03T13:38:54.667Z,985
2017-10-03T13:40:03.505Z,905
2017-10-03T13:41:12.342Z,590
2017-10-03T13:42:21.510Z,545
2017-10-03T13:43:30.346Z,675
2017-10-03T13:44:39.180Z,740
2017-10-03T13:45:48.067Z,705
2017-10-03T13:46:56.903Z,580
2017-10-03T13:48:05.739Z,430
2017-10-03T13:49:14.574Z,525
2017-10-03T13:50:23.410Z,980
2017-10-03T13:51:32.495Z,1375
2017-10-03T13:52:41.335Z,865
2017-10-03T13:53:50.171Z,870
2017-10-03T13:54:59.008Z,775
2017-10-03T13:56:07.843Z,875
2017-10-03T13:57:16.779Z,775
2017-10-03T13:58:25.617Z,575
2017-10-03T13:59:34.457Z,695
2017-10-03T14:00:43.293Z,535
2017-10-03T14:01:52.130Z,315
2017-10-03T14:03:00.965Z,365
2017-10-03T14:04:09.802Z,335
2017-10-03T14:05:18.640Z,385
2017-10-03T14:06:27.479Z,410
2017-10-03T14:07:36.313Z,430
2017-10-03T14:08:45.529Z,490
2017-10-03T14:09:54.369Z,440
2017-10-03T14:11:03.206Z,710
2017-10-03T14:12:12.044Z,790
2017-10-03T14:13:20.882Z,865
2017-10-03T14:14:29.817Z,785
2017-10-03T14:15:38.653Z,885
2017-10-03T14:16:47.822Z,885
2017-10-03T14:17:56.659Z,695
2017-10-03T14:19:05.496Z,655
2017-10-03T14:20:14.483Z,510
2017-10-03T14:21:23.319Z,455
2017-10-03T14:22:32.156Z,440
2017-10-03T14:23:40.994Z,300
2017-10-03T14:24:49.830Z,240
2017-10-03T14:25:58.716Z,225
2017-10-03T14:27:07.551Z,230
2017-10-03T14:28:16.721Z,300
2017-10-03T14:29:25.558Z,315
2017-10-03T14:30:34.393Z,435
2017-10-03T14:31:43.226Z,570
2017-10-03T14:32:52.061Z,500
2017-10-03T14:34:00.896Z,305
2017-10-03T14:35:09.732Z,295
2017-10-03T14:36:18.587Z,320
2017-10-03T14:37:27.506Z,375
2017-10-03T14:38:36.673Z,650
2017-10-03T14:39:45.510Z,520
2017-10-03T14:40:54.344Z,500
2017-10-03T14:42:03.180Z,500
2017-10-03T14:43:12.068Z,455
2017-10-03T14:44:21.231Z,385
2017-10-03T14:45:30.066Z,275
2017-10-03T14:46:38.901Z,245
2017-10-03T14:47:47.737Z,195
2017-10-03T14:48:56.877Z,150
2017-10-03T14:50:05.713Z,130
2017-10-03T14:51:14.549Z,130
2017-10-03T14:52:23.384Z,135
2017-10-03T14:53:32.218Z,155
2017-10-03T14:54:41.434Z,195
2017-10-03T14:55:50.268Z,250
2017-10-03T14:56:59.104Z,265
2017-10-03T14:58:07.937Z,275
2017-10-03T14:59:16.773Z,280
2017-10-03T15:00:25.718Z,270
2017-10-03T15:01:34.543Z,255
2017-10-03T15:02:43.378Z,245
2017-10-03T15:03:52.211Z,240
2017-10-03T15:05:01.380Z,255
2017-10-03T15:06:10.243Z,285
2017-10-03T15:07:19.381Z,305
2017-10-03T15:08:28.219Z,310
2017-10-03T15:09:37.055Z,310
2017-10-03T15:10:45.890Z,320
2017-10-03T15:11:55.106Z,350
2017-10-03T15:13:03.939Z,400
2017-10-03T15:14:12.776Z,390
2017-10-03T15:15:21.943Z,375
2017-10-03T15:16:30.778Z,360
2017-10-03T15:17:39.761Z,320
2017-10-03T15:18:48.595Z,280
2017-10-03T15:19:57.432Z,245
2017-10-03T15:21:06.269Z,225
2017-10-03T15:22:15.102Z,210
2017-10-03T15:23:24.090Z,215
2017-10-03T15:24:32.928Z,210
2017-10-03T15:25:41.762Z,200
2017-10-03T15:26:50.596Z,200
2017-10-03T15:27:59.430Z,190
2017-10-03T15:29:08.312Z,165
2017-10-03T15:30:17.145Z,150
2017-10-03T15:31:26.311Z,140
2017-10-03T15:32:35.148Z,140
2017-10-03T15:33:43.985Z,140
2017-10-03T15:34:52.971Z,140
2017-10-03T15:36:01.823Z,135
2017-10-03T15:37:10.639Z,145
2017-10-03T15:38:19.471Z,145
2017-10-03T15:39:28.307Z,150
2017-10-03T15:40:37.191Z,165
2017-10-03T15:41:46.025Z,175
2017-10-03T15:42:54.857Z,165
2017-10-03T15:44:03.694Z,165
2017-10-03T15:45:12.526Z,180
2017-10-03T15:46:21.462Z,190
2017-10-03T15:47:30.296Z,190
2017-10-03T15:48:39.128Z,180
2017-10-03T15:49:47.961Z,170
2017-10-03T15:50:56.793Z,160
2017-10-03T15:52:05.676Z,155
2017-10-03T15:53:14.509Z,155
2017-10-03T15:54:23.342Z,165
2017-10-03T15:55:32.177Z,175
2017-10-03T15:56:41.012Z,180
2017-10-03T15:57:49.894Z,190
2017-10-03T15:58:58.729Z,185
2017-10-03T16:00:07.567Z,190
2017-10-03T16:01:16.406Z,195
2017-10-03T16:02:25.242Z,195
2017-10-03T16:03:34.126Z,180
2017-10-03T16:04:42.960Z,160
2017-10-03T16:05:51.793Z,155
2017-10-03T16:07:00.625Z,150
2017-10-03T16:08:09.461Z,140
2017-10-03T16:09:18.345Z,135
2017-10-03T16:10:27.178Z,135
2017-10-03T16:11:36.014Z,140
2017-10-03T16:12:44.847Z,140